createdAt,value
2023-01-13T05:27:54.811Z,45.60
2023-01-13T05:30:23.737Z,35.20
2023-01-13T05:32:51.258Z,25.10
2023-01-13T05:35:18.823Z,33.60
2023-01-13T05:37:46.582Z,41.50
2023-01-13T05:40:34.394Z,36.80
2023-01-13T05:43:21.434Z,35.30
2023-01-13T05:45:51.346Z,36.20
2023-01-13T05:48:19.833Z,30.50
2023-01-13T05:50:48.651Z,36.30
2023-01-13T05:53:19.050Z,38.20
2023-01-13T05:55:46.504Z,31.20
2023-01-13T05:58:15.090Z,35.20
2023-01-13T06:00:44.075Z,23.60
2023-01-13T06:03:11.924Z,43.10
2023-01-13T06:05:39.697Z,39.70
2023-01-13T06:08:07.298Z,37.00
2023-01-13T06:10:54.589Z,37.60
2023-01-13T06:13:24.755Z,30.20
2023-01-13T06:15:57.225Z,49.60
2023-01-13T06:18:27.146Z,40.40
2023-01-13T06:20:55.568Z,34.70
2023-01-13T06:23:23.640Z,44.10
2023-01-13T06:26:20.082Z,45.40
2023-01-13T06:28:49.640Z,28.30
2023-01-13T06:31:17.211Z,34.60
2023-01-13T06:33:50.396Z,35.20
2023-01-13T06:36:21.841Z,47.30
2023-01-13T06:38:51.797Z,36.70
2023-01-13T06:41:39.196Z,44.00
2023-01-13T06:44:06.810Z,34.90
2023-01-13T06:46:35.370Z,38.30
2023-01-13T06:49:03.230Z,35.00
2023-01-13T06:51:30.992Z,49.70
2023-01-13T06:53:58.817Z,34.10
2023-01-13T06:56:26.558Z,26.90
2023-01-13T06:58:54.225Z,39.00
2023-01-13T07:01:21.872Z,31.50
2023-01-13T11:14:40.880Z,37.40
2023-01-13T11:17:40.848Z,36.80
2023-01-13T11:20:12.659Z,24.20
2023-01-13T11:25:23.671Z,18.70
2023-01-13T11:42:08.157Z,26.50
2023-01-13T11:44:41.768Z,30.50
2023-01-13T11:47:11.262Z,21.30
2023-01-13T11:49:39.015Z,23.70
2023-01-13T11:52:17.537Z,29.80
2023-01-13T11:54:47.564Z,27.50
2023-01-13T11:57:28.219Z,32.00
2023-01-13T12:00:20.583Z,20.20
2023-01-13T12:02:51.499Z,35.10
2023-01-13T12:05:23.462Z,30.90
2023-01-13T12:08:10.788Z,40.60
2023-01-13T12:11:00.702Z,25.00
2023-01-13T12:14:06.261Z,24.80
2023-01-13T12:16:34.732Z,31.00
2023-01-13T12:19:21.169Z,32.60
2023-01-13T12:21:57.988Z,24.30
2023-01-13T12:24:36.957Z,19.70
2023-01-13T12:27:10.661Z,27.60
2023-01-13T12:29:38.674Z,31.60
2023-01-13T12:32:20.647Z,19.90
2023-01-13T12:35:13.628Z,32.30
2023-01-13T12:37:53.369Z,71.80
2023-01-13T12:40:42.434Z,27.00
2023-01-13T12:43:37.337Z,39.80
2023-01-13T12:46:21.173Z,28.50
2023-01-13T12:48:54.492Z,22.70
2023-01-13T12:51:28.276Z,32.80
2023-01-13T12:53:56.204Z,25.60
2023-01-13T12:56:24.622Z,27.40
2023-01-13T12:58:52.248Z,27.20
2023-01-13T13:01:20.820Z,24.20
2023-01-13T13:04:10.069Z,27.00
2023-01-13T13:06:39.125Z,35.80
2023-01-13T13:09:26.344Z,28.40
2023-01-13T13:12:02.923Z,24.50
2023-01-13T13:14:37.271Z,24.60
2023-01-13T13:17:25.984Z,29.20
2023-01-13T13:19:57.750Z,27.00
2023-01-13T13:22:34.823Z,20.10
2023-01-13T13:25:05.765Z,27.30
2023-01-13T13:27:43.686Z,37.00
2023-01-13T13:30:30.340Z,33.20
2023-01-13T13:33:16.166Z,29.20
2023-01-13T13:35:51.728Z,39.20
2023-01-13T13:38:52.775Z,27.80
2023-01-13T13:41:41.398Z,34.10
2023-01-13T13:44:35.763Z,28.10
2023-01-13T13:47:05.431Z,26.80
2023-01-13T13:49:49.343Z,26.20
2023-01-13T13:52:35.757Z,23.80
2023-01-13T13:55:26.300Z,26.00
2023-01-13T13:57:54.828Z,22.60
2023-01-13T14:00:35.284Z,24.90
2023-01-13T14:03:05.710Z,39.40
2023-01-13T14:05:34.280Z,33.60
2023-01-13T14:08:09.806Z,20.20
2023-01-13T14:10:39.075Z,34.60
2023-01-13T14:13:19.721Z,30.70
2023-01-13T14:15:49.165Z,20.60
2023-01-13T14:18:20.510Z,23.60
2023-01-13T14:20:59.732Z,18.70
2023-01-13T14:23:32.511Z,25.50
2023-01-13T14:26:12.669Z,21.80
2023-01-13T14:28:40.844Z,27.20
2023-01-13T14:31:08.799Z,28.90
2023-01-13T14:33:38.852Z,29.60
2023-01-13T14:36:12.148Z,24.30
2023-01-13T14:38:40.381Z,30.30
2023-01-13T14:41:20.331Z,30.80
2023-01-13T14:43:48.837Z,18.60
2023-01-13T14:46:20.632Z,23.00
2023-01-13T14:48:48.411Z,21.40
2023-01-13T14:51:24.131Z,32.60
2023-01-13T14:53:52.848Z,29.00
2023-01-13T14:57:00.774Z,25.40
2023-01-13T14:59:44.031Z,25.50
2023-01-13T15:02:30.867Z,29.90
2023-01-13T15:05:16.916Z,23.10
2023-01-13T15:08:09.552Z,39.20
2023-01-13T15:10:45.708Z,32.80
2023-01-13T15:13:38.664Z,38.40
2023-01-13T15:16:23.128Z,41.50
2023-01-13T15:19:12.298Z,32.20
2023-01-13T15:21:40.798Z,37.40
2023-01-13T15:24:11.287Z,33.60
2023-01-13T15:26:38.848Z,29.50
2023-01-13T15:29:06.283Z,25.60
2023-01-13T15:31:34.089Z,23.40
2023-01-13T15:34:01.831Z,35.10
2023-01-13T15:36:30.900Z,26.50
2023-01-13T15:38:58.999Z,32.40
2023-01-13T15:41:44.991Z,29.30
2023-01-13T15:44:32.448Z,42.90
2023-01-13T15:47:01.859Z,32.10
2023-01-13T15:49:34.647Z,23.80
2023-01-13T15:52:16.129Z,27.60
2023-01-13T15:57:23.237Z,30.60
2023-01-13T15:59:52.085Z,38.70
2023-01-13T16:02:22.040Z,39.40
2023-01-13T21:10:21.978Z,45.60
2023-01-13T21:13:09.916Z,53.50
2023-01-13T21:15:38.181Z,54.40
2023-01-13T21:18:24.793Z,58.50
2023-01-13T21:21:11.708Z,48.60
2023-01-13T21:23:43.663Z,48.50
2023-01-13T21:26:12.039Z,53.40
2023-01-13T21:28:39.863Z,68.40
2023-01-13T21:31:09.299Z,81.90
2023-01-13T21:33:37.636Z,69.50
2023-01-13T21:36:15.969Z,65.60
2023-01-13T21:38:43.767Z,76.90
2023-01-13T21:41:14.584Z,87.40
2023-01-13T21:44:00.784Z,78.10
2023-01-13T21:46:48.049Z,99.50
2023-01-13T21:49:15.661Z,72.10
2023-01-13T21:51:44.935Z,81.70
2023-01-13T21:54:13.138Z,78.90
2023-01-13T21:56:40.617Z,95.40
2023-01-13T21:59:10.438Z,81.30
2023-01-13T22:02:09.486Z,79.20
2023-01-13T22:04:27.388Z,87.50
2023-01-13T22:06:54.890Z,82.30
2023-01-13T22:09:22.829Z,76.40
2023-01-13T22:11:50.308Z,88.50
2023-01-13T22:14:17.902Z,93.60
2023-01-13T22:16:50.021Z,80.40
2023-01-13T22:19:19.042Z,82.40
2023-01-13T22:21:47.010Z,81.20
2023-01-13T22:24:15.501Z,85.20
2023-01-13T22:26:43.370Z,71.60
2023-01-13T22:29:11.231Z,73.60
2023-01-13T22:31:39.089Z,114.70
2023-01-13T22:34:06.752Z,85.50
2023-01-13T22:36:34.411Z,88.60
2023-01-13T22:39:02.283Z,86.90
2023-01-13T22:41:30.092Z,84.80
2023-01-13T22:43:57.694Z,77.30
2023-01-13T22:46:25.268Z,78.30
2023-01-13T22:48:54.300Z,83.70
2023-01-13T22:51:23.103Z,106.00
2023-01-13T22:53:51.424Z,99.00
2023-01-13T22:56:23.693Z,94.10
2023-01-13T22:58:55.014Z,75.50
2023-01-13T23:01:23.794Z,85.50
2023-01-13T23:03:51.399Z,78.50
2023-01-13T23:06:20.282Z,90.00
2023-01-13T23:08:48.101Z,85.00
2023-01-13T23:11:18.069Z,101.20
2023-01-13T23:13:45.804Z,111.90
2023-01-13T23:16:15.483Z,116.00
2023-01-13T23:18:45.652Z,122.30
2023-01-13T23:21:14.750Z,113.10
2023-01-13T23:23:42.617Z,98.20
2023-01-13T23:26:10.699Z,98.30
2023-01-13T23:28:38.456Z,88.10
2023-01-13T23:31:10.989Z,66.00
2023-01-13T23:33:41.260Z,79.60
2023-01-13T23:36:10.865Z,79.60
2023-01-13T23:38:38.417Z,88.60
2023-01-13T23:41:07.918Z,86.20
2023-01-13T23:43:35.584Z,96.90
2023-01-13T23:46:08.312Z,99.30
2023-01-13T23:48:36.241Z,108.90
2023-01-13T23:51:06.082Z,110.40
2023-01-13T23:53:35.689Z,106.40
2023-01-13T23:56:04.542Z,98.20
2023-01-13T23:58:32.304Z,87.50
